createdAt,value
2018-01-25T00:00:18.567Z,18.17
2018-01-25T00:02:46.146Z,16.07
2018-01-25T00:05:13.732Z,16.83
2018-01-25T00:07:41.337Z,20.60
2018-01-25T00:10:08.930Z,13.23
2018-01-25T00:12:36.540Z,12.53
2018-01-25T00:15:04.125Z,12.90
2018-01-25T00:17:31.689Z,15.70
2018-01-25T00:20:00.066Z,13.03
2018-01-25T00:22:32.088Z,11.33
2018-01-25T00:24:59.725Z,16.73
2018-01-25T00:27:27.388Z,10.37
2018-01-25T00:29:54.997Z,10.67
2018-01-25T00:32:22.590Z,10.90
2018-01-25T00:34:50.949Z,12.97
2018-01-25T00:37:19.316Z,10.27
2018-01-25T00:39:46.911Z,10.37
2018-01-25T00:42:14.494Z,9.07
2018-01-25T00:44:42.080Z,9.47
2018-01-25T00:47:09.653Z,7.77
2018-01-25T00:49:37.255Z,7.93
2018-01-25T00:52:04.826Z,7.27
2018-01-25T00:54:32.426Z,7.57
2018-01-25T00:57:00.021Z,7.70
2018-01-25T00:59:28.476Z,9.53
2018-01-25T01:01:56.053Z,7.07
2018-01-25T01:04:24.421Z,10.33
2018-01-25T01:06:52.036Z,10.80
2018-01-25T01:09:19.620Z,8.33
2018-01-25T01:11:48.001Z,8.90
2018-01-25T01:14:15.581Z,11.50
2018-01-25T01:16:43.156Z,9.10
2018-01-25T01:19:11.568Z,12.57
2018-01-25T01:21:39.931Z,11.03
2018-01-25T01:24:07.536Z,12.17
2018-01-25T01:26:35.162Z,12.00
2018-01-25T01:29:02.773Z,13.23
2018-01-25T01:31:30.364Z,12.07
2018-01-25T01:33:58.720Z,15.13
2018-01-25T01:36:27.069Z,13.53
2018-01-25T01:38:54.657Z,11.03
2018-01-25T01:41:22.228Z,13.93
2018-01-25T01:43:50.580Z,12.03
2018-01-25T01:46:18.281Z,13.63
2018-01-25T01:48:45.858Z,11.07
2018-01-25T01:51:13.464Z,11.67
2018-01-25T01:53:41.077Z,12.27
2018-01-25T01:56:08.677Z,11.33
2018-01-25T01:58:36.246Z,14.53
2018-01-25T02:01:03.859Z,11.17
2018-01-25T02:03:31.440Z,13.53
2018-01-25T02:05:59.013Z,11.70
2018-01-25T02:08:26.626Z,10.27
2018-01-25T02:10:54.218Z,12.70
2018-01-25T02:13:21.813Z,10.77
2018-01-25T02:15:49.451Z,14.50
2018-01-25T02:18:17.032Z,11.60
2018-01-25T02:20:44.591Z,11.43
2018-01-25T02:23:12.256Z,11.07
2018-01-25T02:25:39.817Z,13.87
2018-01-25T02:28:07.393Z,11.37
2018-01-25T02:30:35.746Z,10.57
2018-01-25T02:33:03.316Z,14.20
2018-01-25T02:35:30.918Z,11.80
2018-01-25T02:37:58.499Z,12.50
2018-01-25T02:40:26.121Z,10.80
2018-01-25T02:42:53.717Z,12.60
2018-01-25T02:45:21.370Z,13.70
2018-01-25T02:47:48.956Z,11.93
2018-01-25T02:50:16.569Z,11.20
2018-01-25T02:52:44.183Z,11.63
2018-01-25T02:55:11.768Z,9.90
2018-01-25T02:57:40.125Z,9.97
2018-01-25T03:00:07.696Z,13.87
2018-01-25T03:02:35.401Z,12.47
2018-01-25T03:05:02.973Z,14.87
2018-01-25T03:07:30.565Z,9.73
2018-01-25T03:09:58.150Z,11.70
2018-01-25T03:12:26.494Z,10.73
2018-01-25T03:14:54.126Z,12.33
2018-01-25T03:17:21.705Z,11.70
2018-01-25T03:19:49.310Z,11.20
2018-01-25T03:22:17.657Z,15.10
2018-01-25T03:24:45.260Z,11.33
2018-01-25T03:27:12.843Z,12.60
2018-01-25T03:29:40.437Z,9.70
2018-01-25T03:32:08.005Z,10.07
2018-01-25T03:34:35.658Z,10.23
2018-01-25T03:37:03.269Z,8.77
2018-01-25T03:39:30.864Z,8.63
2018-01-25T03:41:58.501Z,9.07
2018-01-25T03:44:26.096Z,10.20
2018-01-25T03:46:53.688Z,10.60
2018-01-25T03:49:22.024Z,9.97
2018-01-25T03:51:49.631Z,8.93
2018-01-25T03:54:17.973Z,10.53
2018-01-25T03:56:45.578Z,9.83
2018-01-25T03:59:13.918Z,9.40
2018-01-25T04:01:41.507Z,9.20
2018-01-25T04:04:09.888Z,10.93
2018-01-25T04:06:38.233Z,12.30
2018-01-25T04:09:05.825Z,8.27
2018-01-25T04:11:34.165Z,15.97
2018-01-25T04:14:01.813Z,10.37
2018-01-25T04:16:29.381Z,10.87
2018-01-25T04:18:56.973Z,10.03
2018-01-25T04:21:24.580Z,11.67
2018-01-25T04:23:52.178Z,11.67
2018-01-25T04:26:19.750Z,10.90
2018-01-25T04:28:47.341Z,14.73
2018-01-25T04:31:14.911Z,8.70
2018-01-25T04:33:42.523Z,9.30
2018-01-25T04:36:10.116Z,13.67
2018-01-25T04:38:37.717Z,10.77
2018-01-25T04:41:05.329Z,10.50
2018-01-25T04:43:33.754Z,11.70
2018-01-25T04:46:01.356Z,11.80
2018-01-25T04:48:29.681Z,14.43
2018-01-25T04:50:57.269Z,10.37
2018-01-25T04:53:24.989Z,10.70
2018-01-25T04:55:52.556Z,10.30
2018-01-25T04:58:20.200Z,10.10
2018-01-25T05:00:47.777Z,8.97
2018-01-25T05:03:15.434Z,10.40
2018-01-25T05:05:43.022Z,10.13
2018-01-25T05:08:10.609Z,12.90
2018-01-25T05:10:38.184Z,10.43
2018-01-25T05:13:06.554Z,8.27
2018-01-25T05:15:34.120Z,7.97
2018-01-25T05:18:01.725Z,9.67
2018-01-25T05:20:29.321Z,9.53
2018-01-25T05:22:56.902Z,8.60
2018-01-25T05:25:25.269Z,10.83
2018-01-25T05:27:53.376Z,16.50
2018-01-25T05:30:20.982Z,19.27
2018-01-25T05:32:48.557Z,17.67
2018-01-25T05:35:16.153Z,14.23
2018-01-25T05:37:43.722Z,14.73
2018-01-25T05:40:11.309Z,17.33
2018-01-25T05:42:38.925Z,9.60
2018-01-25T05:45:07.358Z,14.53
2018-01-25T05:47:34.940Z,14.13
2018-01-25T05:50:02.521Z,17.07
2018-01-25T05:52:30.890Z,15.20
2018-01-25T05:54:59.249Z,14.27
2018-01-25T05:57:26.856Z,15.47
2018-01-25T05:59:54.426Z,21.27
2018-01-25T06:02:22.037Z,14.47
2018-01-25T06:04:49.612Z,24.47
2018-01-25T06:07:18.018Z,16.90
2018-01-25T06:09:45.604Z,17.47
2018-01-25T06:12:13.841Z,19.07
2018-01-25T06:14:41.651Z,13.20
2018-01-25T06:17:10.535Z,16.10
2018-01-25T06:19:38.638Z,19.30
2018-01-25T06:22:06.266Z,25.47
2018-01-25T06:24:33.890Z,20.47
2018-01-25T06:27:01.464Z,21.80
2018-01-25T06:29:29.251Z,21.43
2018-01-25T06:31:56.820Z,23.53
2018-01-25T06:34:24.469Z,23.10
2018-01-25T06:36:52.050Z,20.53
2018-01-25T06:39:19.637Z,23.50
2018-01-25T06:41:48.016Z,22.33
2018-01-25T06:44:16.507Z,20.73
2018-01-25T06:46:44.094Z,22.57
2018-01-25T06:49:11.681Z,20.07
2018-01-25T06:51:39.320Z,19.53
2018-01-25T06:54:06.897Z,19.10
2018-01-25T06:56:34.493Z,20.87
2018-01-25T06:59:02.854Z,17.90
2018-01-25T07:01:30.458Z,22.73
2018-01-25T07:03:58.121Z,20.47
2018-01-25T07:06:25.807Z,20.97
2018-01-25T07:08:53.413Z,23.53
2018-01-25T07:11:21.011Z,18.90
2018-01-25T07:13:48.676Z,21.87
2018-01-25T07:16:16.254Z,24.10
2018-01-25T07:18:43.872Z,21.47
2018-01-25T07:21:11.485Z,21.77
2018-01-25T07:23:39.069Z,24.20
2018-01-25T07:26:06.672Z,21.43
2018-01-25T07:28:34.301Z,21.00
2018-01-25T07:31:02.641Z,17.77
2018-01-25T07:33:30.240Z,20.60
2018-01-25T07:35:58.650Z,21.43
2018-01-25T07:38:26.249Z,19.27
2018-01-25T07:40:53.834Z,21.07
2018-01-25T07:43:22.205Z,20.30
2018-01-25T07:45:49.789Z,17.10
2018-01-25T07:48:18.148Z,16.63
2018-01-25T07:50:46.499Z,17.33
2018-01-25T07:53:14.100Z,16.73
2018-01-25T07:55:42.452Z,17.40
2018-01-25T07:58:16.509Z,16.67
2018-01-25T08:00:44.242Z,18.77
2018-01-25T08:03:11.809Z,16.30
2018-01-25T08:05:40.157Z,18.53
2018-01-25T08:08:07.762Z,16.70
2018-01-25T08:10:35.456Z,19.93
2018-01-25T08:13:08.737Z,18.77
2018-01-25T08:15:36.313Z,18.43
2018-01-25T08:18:03.913Z,17.63
2018-01-25T08:20:31.505Z,19.13
2018-01-25T08:22:59.113Z,21.07
2018-01-25T08:25:26.761Z,24.93
2018-01-25T08:27:54.380Z,19.90
2018-01-25T08:30:21.952Z,23.87
2018-01-25T08:32:49.558Z,24.80
2018-01-25T08:35:17.145Z,21.97
2018-01-25T08:37:45.514Z,21.53
2018-01-25T08:40:13.109Z,18.17
2018-01-25T08:42:40.716Z,21.87
2018-01-25T08:45:08.297Z,20.77
2018-01-25T08:47:36.656Z,31.60
2018-01-25T08:50:04.241Z,24.50
2018-01-25T08:52:32.617Z,23.73
2018-01-25T08:55:00.985Z,22.73
2018-01-25T08:57:28.584Z,23.03
2018-01-25T08:59:56.200Z,19.90
2018-01-25T09:02:23.905Z,25.23
2018-01-25T09:04:51.486Z,21.40
2018-01-25T09:07:19.086Z,19.27
2018-01-25T09:09:47.025Z,21.67
2018-01-25T09:12:14.660Z,22.90
2018-01-25T09:14:42.592Z,22.47
2018-01-25T09:17:10.173Z,23.40
2018-01-25T09:19:38.561Z,32.07
2018-01-25T09:22:06.161Z,31.67
2018-01-25T09:24:33.772Z,38.30
2018-01-25T09:27:02.159Z,44.33
2018-01-25T09:29:30.469Z,39.50
2018-01-25T09:31:58.074Z,34.33
2018-01-25T09:34:26.437Z,37.70
2018-01-25T09:36:54.016Z,42.67
2018-01-25T09:39:22.388Z,48.23
2018-01-25T09:41:50.736Z,38.73
2018-01-25T09:44:18.332Z,40.97
2018-01-25T09:46:46.703Z,32.93
2018-01-25T09:49:15.067Z,35.00
2018-01-25T09:51:42.712Z,34.73
2018-01-25T09:54:10.312Z,30.10
2018-01-25T09:56:38.666Z,33.13
2018-01-25T09:59:06.265Z,27.00
2018-01-25T10:01:33.869Z,29.57
2018-01-25T10:04:01.500Z,28.30
2018-01-25T10:06:29.093Z,27.33
2018-01-25T10:08:57.673Z,30.30
2018-01-25T10:11:25.249Z,34.20
2018-01-25T10:13:52.934Z,32.73
2018-01-25T10:16:21.287Z,30.13
2018-01-25T10:18:48.888Z,28.10
2018-01-25T10:21:16.485Z,32.40
2018-01-25T10:23:44.090Z,30.53
2018-01-25T10:26:12.479Z,24.93
2018-01-25T10:28:41.021Z,25.23
2018-01-25T10:31:08.449Z,34.10
2018-01-25T10:33:36.049Z,32.07
2018-01-25T10:36:03.653Z,32.03
2018-01-25T10:38:31.228Z,29.23
2018-01-25T10:40:58.929Z,31.33
2018-01-25T10:43:26.512Z,27.70
2018-01-25T10:45:54.872Z,27.13
2018-01-25T10:48:22.472Z,27.23
2018-01-25T10:50:50.141Z,23.80
2018-01-25T10:53:17.716Z,22.67
2018-01-25T10:55:45.341Z,21.60
2018-01-25T10:58:13.991Z,19.80
2018-01-25T11:00:47.275Z,22.47
2018-01-25T11:03:14.970Z,25.27
2018-01-25T11:05:43.417Z,21.70
2018-01-25T11:08:10.961Z,22.50
2018-01-25T11:10:38.604Z,21.87
2018-01-25T11:13:06.174Z,18.83
2018-01-25T11:15:33.749Z,19.20
2018-01-25T11:18:01.477Z,20.00
2018-01-25T11:20:29.071Z,18.17
2018-01-25T11:22:57.048Z,18.43
2018-01-25T11:25:25.906Z,19.30
2018-01-25T11:27:53.561Z,16.70
2018-01-25T11:30:21.154Z,16.87
2018-01-25T11:32:48.790Z,19.03
2018-01-25T11:35:16.376Z,19.33
2018-01-25T11:37:43.994Z,16.07
2018-01-25T11:40:11.579Z,21.23
2018-01-25T11:42:39.180Z,19.50
2018-01-25T11:45:06.754Z,20.97
2018-01-25T11:47:35.112Z,19.60
2018-01-25T11:50:02.735Z,18.30
2018-01-25T11:52:32.030Z,15.57
2018-01-25T11:54:59.625Z,18.53
2018-01-25T11:57:27.219Z,17.53
2018-01-25T11:59:55.565Z,15.60
2018-01-25T12:02:23.173Z,17.23
2018-01-25T12:04:50.766Z,18.07
2018-01-25T12:07:18.372Z,19.17
2018-01-25T12:09:45.977Z,21.87
2018-01-25T12:12:13.576Z,21.63
2018-01-25T12:14:41.160Z,19.10
2018-01-25T12:17:09.561Z,17.23
2018-01-25T12:19:37.141Z,18.13
2018-01-25T12:22:05.249Z,19.13
2018-01-25T12:24:32.837Z,17.63
2018-01-25T12:27:01.208Z,21.77
2018-01-25T12:29:29.573Z,20.90
2018-01-25T12:31:57.204Z,18.53
2018-01-25T12:34:24.792Z,19.80
2018-01-25T12:36:53.157Z,17.87
2018-01-25T12:39:21.504Z,19.60
2018-01-25T12:41:49.201Z,17.00
2018-01-25T12:44:16.800Z,17.17
2018-01-25T12:46:44.373Z,16.70
2018-01-25T12:49:12.022Z,18.47
2018-01-25T12:51:39.609Z,19.07
2018-01-25T12:54:07.778Z,16.20
2018-01-25T12:56:35.360Z,15.77
2018-01-25T12:59:02.952Z,18.97
2018-01-25T13:01:31.333Z,15.10
2018-01-25T13:03:59.681Z,17.57
2018-01-25T13:06:27.315Z,14.93
2018-01-25T13:08:54.905Z,13.17
2018-01-25T13:11:22.535Z,15.23
2018-01-25T13:13:50.141Z,15.27
2018-01-25T13:16:17.801Z,16.80
2018-01-25T13:18:45.380Z,16.93
2018-01-25T13:21:13.803Z,12.10
2018-01-25T13:23:41.364Z,16.77
2018-01-25T13:26:08.950Z,19.83
2018-01-25T13:28:36.566Z,14.03
2018-01-25T13:31:04.134Z,16.50
2018-01-25T13:33:37.356Z,19.70
2018-01-25T13:36:04.933Z,13.60
2018-01-25T13:38:32.537Z,19.57
2018-01-25T13:41:00.248Z,21.27
2018-01-25T13:43:27.874Z,19.70
2018-01-25T13:45:55.465Z,24.00
2018-01-25T13:48:23.082Z,28.53
2018-01-25T13:50:50.674Z,17.67
2018-01-25T13:53:18.269Z,21.67
2018-01-25T13:55:46.666Z,18.50
2018-01-25T13:58:14.278Z,17.40
2018-01-25T14:00:41.925Z,17.57
2018-01-25T14:03:09.548Z,17.13
2018-01-25T14:05:37.165Z,16.90
2018-01-25T14:08:04.740Z,15.30
2018-01-25T14:10:32.400Z,14.00
2018-01-25T14:12:59.994Z,14.97
2018-01-25T14:15:27.597Z,14.53
2018-01-25T14:17:55.177Z,16.37
2018-01-25T14:20:22.815Z,20.70
2018-01-25T14:22:50.427Z,15.73
2018-01-25T14:25:18.853Z,22.40
2018-01-25T14:27:46.448Z,21.70
2018-01-25T14:30:14.033Z,19.60
2018-01-25T14:32:41.650Z,15.00
2018-01-25T14:35:09.240Z,20.10
2018-01-25T14:37:37.612Z,14.43
2018-01-25T14:40:05.952Z,13.83
2018-01-25T14:42:33.565Z,20.57
2018-01-25T14:45:01.273Z,24.10
2018-01-25T14:47:28.917Z,25.53
2018-01-25T14:49:56.529Z,26.93
2018-01-25T14:52:24.129Z,23.53
2018-01-25T14:54:51.716Z,22.07
2018-01-25T14:57:19.289Z,22.20
2018-01-25T14:59:46.885Z,18.17
2018-01-25T15:02:15.237Z,18.73
2018-01-25T15:04:42.894Z,22.37
2018-01-25T15:07:10.476Z,18.27
2018-01-25T15:09:38.848Z,18.10
2018-01-25T15:12:07.739Z,16.50
2018-01-25T15:14:35.534Z,13.07
2018-01-25T15:17:03.133Z,13.97
2018-01-25T15:19:30.735Z,14.73
2018-01-25T15:21:59.153Z,17.17
2018-01-25T15:24:26.745Z,14.50
2018-01-25T15:26:54.481Z,18.13
2018-01-25T15:29:22.060Z,13.67
2018-01-25T15:31:49.711Z,15.13
2018-01-25T15:34:17.292Z,17.00
2018-01-25T15:36:44.911Z,18.57
2018-01-25T15:39:12.596Z,14.73
2018-01-25T15:41:40.197Z,18.53
2018-01-25T15:44:08.564Z,16.30
2018-01-25T15:46:36.197Z,15.60
2018-01-25T15:49:03.785Z,18.80
2018-01-25T15:51:31.368Z,16.17
2018-01-25T15:53:59.736Z,16.93
2018-01-25T15:56:28.098Z,16.90
2018-01-25T15:58:55.721Z,16.57
2018-01-25T16:01:23.314Z,20.13
2018-01-25T16:03:52.728Z,20.80
2018-01-25T16:06:20.340Z,23.30
2018-01-25T16:08:47.905Z,25.47
2018-01-25T16:11:15.531Z,79.03
2018-01-25T16:13:43.918Z,79.77
2018-01-25T16:16:11.511Z,40.37
2018-01-25T16:18:39.122Z,42.27
2018-01-25T16:21:07.585Z,25.70
2018-01-25T16:23:35.174Z,17.60
2018-01-25T16:26:03.538Z,24.43
2018-01-25T16:28:31.893Z,23.07
2018-01-25T16:30:59.501Z,29.57
2018-01-25T16:33:27.192Z,22.10
2018-01-25T16:35:54.773Z,28.07
2018-01-25T16:38:22.349Z,53.83
2018-01-25T16:40:49.973Z,29.90
2018-01-25T16:43:17.573Z,30.40
2018-01-25T16:45:45.173Z,24.93
2018-01-25T16:48:12.744Z,23.53
2018-01-25T16:50:40.349Z,22.73
2018-01-25T16:53:07.933Z,24.17
2018-01-25T16:55:36.693Z,28.00
2018-01-25T16:58:05.067Z,27.87
2018-01-25T17:00:32.668Z,41.13
2018-01-25T17:03:00.300Z,44.43
2018-01-25T17:05:28.661Z,44.43
2018-01-25T17:07:56.259Z,42.53
2018-01-25T17:10:27.428Z,39.87
2018-01-25T17:12:55.036Z,32.77
2018-01-25T17:15:22.658Z,33.40
2018-01-25T17:17:50.257Z,30.43
2018-01-25T17:20:17.851Z,32.93
2018-01-25T17:22:45.477Z,37.03
2018-01-25T17:25:13.082Z,45.23
2018-01-25T17:27:40.764Z,35.17
2018-01-25T17:30:08.373Z,25.53
2018-01-25T17:32:36.713Z,25.70
2018-01-25T17:35:05.104Z,27.70
2018-01-25T17:37:32.737Z,18.43
2018-01-25T17:40:00.325Z,12.67
2018-01-25T17:42:27.952Z,14.00
2018-01-25T17:44:55.605Z,19.97
2018-01-25T17:47:23.197Z,14.97
2018-01-25T17:49:50.789Z,15.63
2018-01-25T17:52:19.203Z,14.90
2018-01-25T17:54:46.833Z,18.03
2018-01-25T17:57:15.228Z,18.20
2018-01-25T17:59:42.812Z,15.93
2018-01-25T18:02:10.492Z,12.17
2018-01-25T18:04:38.104Z,15.60
2018-01-25T18:07:06.476Z,17.20
2018-01-25T18:09:34.877Z,16.20
2018-01-25T18:12:02.466Z,15.10
2018-01-25T18:14:30.068Z,18.00
2018-01-25T18:16:58.415Z,17.07
2018-01-25T18:19:26.226Z,15.03
2018-01-25T18:21:54.593Z,12.30
2018-01-25T18:24:22.986Z,16.27
2018-01-25T18:26:50.599Z,25.43
2018-01-25T18:29:18.191Z,30.00
2018-01-25T18:31:46.564Z,27.97
2018-01-25T18:34:14.153Z,32.40
2018-01-25T18:36:41.844Z,28.77
2018-01-25T18:39:09.428Z,21.07
2018-01-25T18:41:37.033Z,14.07
2018-01-25T18:44:04.814Z,15.60
2018-01-25T18:46:32.474Z,21.37
2018-01-25T18:49:00.094Z,22.00
2018-01-25T18:51:27.729Z,24.63
2018-01-25T18:53:55.316Z,23.80
2018-01-25T18:56:22.922Z,24.90
2018-01-25T18:58:50.720Z,26.93
2018-01-25T19:01:18.296Z,30.07
2018-01-25T19:03:45.904Z,28.50
2018-01-25T19:06:13.505Z,32.00
2018-01-25T19:08:41.098Z,30.53
2018-01-25T19:11:09.469Z,29.30
2018-01-25T19:13:37.821Z,35.87
2018-01-25T19:16:05.440Z,32.03
2018-01-25T19:18:33.030Z,39.97
2018-01-25T19:21:01.008Z,41.20
2018-01-25T19:23:28.609Z,37.80
2018-01-25T19:25:57.015Z,36.83
2018-01-25T19:28:24.689Z,33.87
2018-01-25T19:30:52.321Z,33.83
2018-01-25T19:33:19.960Z,27.63
2018-01-25T19:35:48.337Z,27.83
2018-01-25T19:38:16.693Z,25.53
2018-01-25T19:40:44.296Z,21.63
2018-01-25T19:43:11.973Z,35.50
2018-01-25T19:45:39.548Z,34.13
2018-01-25T19:48:07.160Z,30.50
2018-01-25T19:50:35.576Z,31.83
2018-01-25T19:53:03.178Z,23.97
2018-01-25T19:55:30.775Z,29.00
2018-01-25T19:57:58.392Z,29.27
2018-01-25T20:00:26.097Z,29.80
2018-01-25T20:02:53.747Z,30.17
2018-01-25T20:05:22.125Z,29.70
2018-01-25T20:07:50.773Z,29.83
2018-01-25T20:10:18.385Z,27.67
2018-01-25T20:12:45.980Z,29.53
2018-01-25T20:15:14.406Z,30.10
2018-01-25T20:17:42.774Z,24.10
2018-01-25T20:20:10.382Z,17.87
2018-01-25T20:22:38.051Z,19.40
2018-01-25T20:25:05.672Z,43.60
2018-01-25T20:27:34.024Z,27.77
2018-01-25T20:30:01.680Z,26.10
2018-01-25T20:32:29.287Z,22.73
2018-01-25T20:34:56.886Z,38.13
2018-01-25T20:37:24.478Z,31.20
2018-01-25T20:39:52.848Z,33.63
2018-01-25T20:42:20.490Z,30.33
2018-01-25T20:44:48.084Z,29.20
2018-01-25T20:47:16.434Z,33.50
2018-01-25T20:49:44.035Z,36.37
2018-01-25T20:52:11.653Z,25.13
2018-01-25T20:54:39.271Z,27.47
2018-01-25T20:57:06.857Z,30.27
2018-01-25T20:59:34.469Z,30.27
2018-01-25T21:02:02.820Z,29.77
2018-01-25T21:04:30.464Z,31.67
2018-01-25T21:06:58.097Z,28.87
2018-01-25T21:09:25.750Z,36.43
2018-01-25T21:11:53.357Z,33.40
2018-01-25T21:14:20.957Z,31.10
2018-01-25T21:16:49.336Z,31.20
2018-01-25T21:19:17.705Z,33.10
2018-01-25T21:21:46.058Z,33.67
2018-01-25T21:24:13.657Z,38.37
2018-01-25T21:26:41.997Z,40.00
2018-01-25T21:29:09.600Z,37.67
2018-01-25T21:31:37.199Z,40.47
2018-01-25T21:34:04.805Z,38.13
2018-01-25T21:36:33.181Z,39.03
2018-01-25T21:39:01.560Z,37.73
2018-01-25T21:41:29.949Z,36.63
2018-01-25T21:43:58.308Z,35.97
2018-01-25T21:46:25.913Z,34.13
2018-01-25T21:48:53.480Z,37.13
2018-01-25T21:51:21.095Z,38.10
2018-01-25T21:53:48.776Z,40.60
2018-01-25T21:56:16.378Z,34.77
2018-01-25T21:58:43.948Z,33.27
2018-01-25T22:01:11.533Z,31.33
2018-01-25T22:03:39.127Z,38.00
2018-01-25T22:06:06.741Z,32.53
2018-01-25T22:08:34.317Z,23.50
2018-01-25T22:11:02.681Z,21.73
2018-01-25T22:13:30.288Z,21.27
2018-01-25T22:15:57.881Z,19.83
2018-01-25T22:18:26.268Z,24.60
2018-01-25T22:20:53.932Z,27.33
2018-01-25T22:23:21.544Z,22.73
2018-01-25T22:25:49.125Z,33.67
2018-01-25T22:28:16.700Z,30.43
2018-01-25T22:30:44.516Z,32.07
2018-01-25T22:33:12.870Z,25.73
2018-01-25T22:35:40.477Z,25.07
2018-01-25T22:38:08.516Z,27.67
2018-01-25T22:40:36.980Z,22.80
2018-01-25T22:43:04.558Z,22.57
2018-01-25T22:45:32.924Z,25.03
2018-01-25T22:48:01.282Z,21.63
2018-01-25T22:50:28.923Z,23.33
2018-01-25T22:52:56.573Z,22.27
2018-01-25T22:55:24.177Z,24.57
2018-01-25T22:57:51.777Z,21.20
2018-01-25T23:00:31.044Z,22.07
2018-01-25T23:02:58.641Z,29.70
2018-01-25T23:05:27.001Z,20.63
2018-01-25T23:07:54.672Z,20.47
2018-01-25T23:10:22.253Z,22.60
2018-01-25T23:12:50.620Z,22.13
2018-01-25T23:15:18.971Z,22.00
2018-01-25T23:17:46.580Z,21.50
2018-01-25T23:20:14.168Z,20.87
2018-01-25T23:22:41.744Z,24.50
2018-01-25T23:25:09.358Z,23.63
2018-01-25T23:27:37.712Z,22.17
2018-01-25T23:30:05.303Z,26.07
2018-01-25T23:32:32.878Z,20.00
2018-01-25T23:35:00.472Z,22.10
2018-01-25T23:37:28.051Z,21.33
2018-01-25T23:39:55.640Z,23.23
2018-01-25T23:42:23.254Z,20.33
2018-01-25T23:44:50.832Z,20.30
2018-01-25T23:47:18.462Z,19.53
2018-01-25T23:49:46.117Z,19.47
2018-01-25T23:52:13.716Z,25.77
2018-01-25T23:54:41.294Z,25.70
2018-01-25T23:57:09.672Z,26.27
2018-01-25T23:59:38.041Z,28.13
